Time;durP1;ratioP1;P1;durP2;ratioP2;P2;SDS_P1;SDS_P2;PMS_P1;PMS_P2;Temp;Humidity;BMP_temperature;BMP_pressure;BME280_temperature;BME280_humidity;BME280_pressure;Samples;Min_cycle;Max_cycle;Signal;HPM_P1;HPM_P2
2023/12/24 00:02:25;;;;;;;1.97;1.70;;;1.90;99.90;;;;;;5199031;28;20215;-49
2023/12/24 00:04:56;;;;;;;2.43;1.87;;;1.90;99.90;;;;;;5199878;28;20230;-48
2023/12/24 00:07:27;;;;;;;1.83;1.73;;;1.90;99.90;;;;;;5199622;28;20592;-47
2023/12/24 00:09:58;;;;;;;2.30;2.10;;;1.80;99.90;;;;;;5199487;28;20180;-48
2023/12/24 00:12:29;;;;;;;2.00;1.80;;;1.80;99.90;;;;;;5201267;28;20797;-48
2023/12/24 00:15:00;;;;;;;3.60;3.20;;;1.70;99.90;;;;;;5195514;28;20208;-48
2023/12/24 00:17:31;;;;;;;6.43;4.00;;;1.70;99.90;;;;;;5196342;28;20195;-48
2023/12/24 00:20:02;;;;;;;5.40;4.13;;;1.70;99.90;;;;;;5200869;28;20433;-48
2023/12/24 00:22:33;;;;;;;4.40;4.07;;;1.70;99.90;;;;;;5199231;28;20489;-47
2023/12/24 00:25:04;;;;;;;6.60;4.97;;;1.70;99.90;;;;;;5198837;28;20446;-48
2023/12/24 00:27:34;;;;;;;6.83;5.27;;;1.70;99.90;;;;;;5196578;28;20279;-47
2023/12/24 00:30:06;;;;;;;5.07;2.83;;;1.60;99.90;;;;;;5198370;28;20434;-47
2023/12/24 00:32:36;;;;;;;5.30;3.30;;;1.60;99.90;;;;;;5200804;28;20211;-49
2023/12/24 00:35:07;;;;;;;7.70;2.80;;;1.60;99.90;;;;;;5198134;28;21479;-48
2023/12/24 00:37:38;;;;;;;4.20;3.80;;;1.70;99.90;;;;;;5199702;28;20241;-47
2023/12/24 00:40:09;;;;;;;7.60;4.53;;;1.60;99.90;;;;;;5198702;28;20211;-51
2023/12/24 00:42:39;;;;;;;7.90;6.93;;;1.60;99.90;;;;;;5199129;28;20223;-48
2023/12/24 00:45:12;;;;;;;16.83;8.80;;;1.60;99.90;;;;;;5194028;28;20525;-48
2023/12/24 00:47:43;;;;;;;6.40;5.80;;;1.50;99.90;;;;;;5196076;28;20525;-48
2023/12/24 00:50:13;;;;;;;4.77;4.40;;;1.40;99.90;;;;;;5200282;28;20518;-48
2023/12/24 00:52:44;;;;;;;16.43;11.50;;;1.40;99.90;;;;;;5194623;28;20219;-49
2023/12/24 00:55:15;;;;;;;5.87;5.40;;;1.40;99.90;;;;;;5196641;28;20192;-48
2023/12/24 00:57:45;;;;;;;9.60;7.67;;;1.20;99.90;;;;;;5199911;28;20269;-47
2023/12/24 01:00:16;;;;;;;4.50;4.30;;;1.60;99.90;;;;;;5179714;28;20250;-49
2023/12/24 01:02:47;;;;;;;9.60;5.30;;;1.50;99.90;;;;;;5199176;28;20220;-47
2023/12/24 01:05:17;;;;;;;7.47;4.73;;;1.40;99.90;;;;;;5203552;28;20274;-47
2023/12/24 01:07:48;;;;;;;5.97;5.37;;;1.30;99.90;;;;;;5199100;28;20188;-49
2023/12/24 01:10:18;;;;;;;7.77;5.90;;;1.30;99.90;;;;;;5199060;28;20674;-48
2023/12/24 01:12:49;;;;;;;13.33;8.13;;;1.10;99.90;;;;;;5200787;28;20224;-47
2023/12/24 01:15:20;;;;;;;11.37;8.23;;;1.10;99.90;;;;;;5202046;28;20190;-48
2023/12/24 01:17:50;;;;;;;13.87;9.90;;;1.10;99.90;;;;;;5201895;28;20349;-50
2023/12/24 01:20:21;;;;;;;12.30;8.60;;;1.00;99.90;;;;;;5199203;28;20537;-48
2023/12/24 01:22:52;;;;;;;18.73;11.90;;;1.00;99.90;;;;;;5201699;28;20223;-47
2023/12/24 01:25:22;;;;;;;10.00;8.57;;;1.00;99.90;;;;;;5200742;28;20207;-47
2023/12/24 01:27:53;;;;;;;10.50;8.70;;;1.00;99.90;;;;;;5203097;28;20225;-49
2023/12/24 01:30:24;;;;;;;11.03;9.20;;;1.00;99.90;;;;;;5200012;28;20187;-48
2023/12/24 01:32:54;;;;;;;12.00;9.20;;;0.90;99.90;;;;;;5200601;28;20215;-51
2023/12/24 01:35:25;;;;;;;11.77;9.13;;;1.00;99.90;;;;;;5203714;28;20184;-48
2023/12/24 01:37:55;;;;;;;10.63;8.60;;;0.90;99.90;;;;;;5183778;28;20401;-47
2023/12/24 01:40:26;;;;;;;11.37;9.17;;;0.90;99.90;;;;;;5199954;28;20634;-49
2023/12/24 01:42:57;;;;;;;13.20;8.57;;;0.90;99.90;;;;;;5202332;28;20305;-48
2023/12/24 01:45:27;;;;;;;12.23;8.80;;;0.90;99.90;;;;;;5202216;28;20615;-47
2023/12/24 01:47:58;;;;;;;14.60;10.97;;;0.90;99.90;;;;;;5201050;28;20245;-47
2023/12/24 01:50:29;;;;;;;15.73;10.07;;;0.90;99.90;;;;;;5185283;28;20185;-47
2023/12/24 01:53:00;;;;;;;13.40;8.93;;;0.90;99.90;;;;;;5182284;28;20210;-47
2023/12/24 01:55:31;;;;;;;12.30;9.43;;;0.80;99.90;;;;;;5203479;28;20186;-48
2023/12/24 01:58:03;;;;;;;17.20;10.37;;;0.80;99.90;;;;;;5201456;28;20525;-47
2023/12/24 02:00:34;;;;;;;14.93;10.20;;;0.80;99.90;;;;;;5202197;28;20438;-48
2023/12/24 02:03:05;;;;;;;14.07;8.97;;;0.70;99.90;;;;;;5198337;28;20498;-49
2023/12/24 02:05:36;;;;;;;17.00;9.80;;;0.70;99.90;;;;;;5201973;28;20478;-46
2023/12/24 02:08:07;;;;;;;12.93;8.90;;;0.80;99.90;;;;;;5199078;28;20187;-46
2023/12/24 02:10:38;;;;;;;12.50;8.37;;;0.80;99.90;;;;;;5196095;28;20528;-47
2023/12/24 02:13:09;;;;;;;14.30;9.13;;;0.80;99.90;;;;;;5203871;28;21005;-48
2023/12/24 02:15:40;;;;;;;8.90;7.10;;;0.80;99.90;;;;;;5201461;28;20749;-47
2023/12/24 02:18:11;;;;;;;12.53;8.60;;;0.80;99.90;;;;;;5178448;28;20454;-47
2023/12/24 02:20:41;;;;;;;14.90;8.77;;;0.80;99.90;;;;;;5197446;28;20214;-47
2023/12/24 02:23:12;;;;;;;14.70;8.80;;;0.80;99.90;;;;;;5203871;28;20222;-47
2023/12/24 02:25:43;;;;;;;10.40;7.83;;;0.70;99.90;;;;;;5200796;28;20926;-48
2023/12/24 02:28:25;;;;;;;18.40;10.43;;;0.80;99.90;;;;;;5199982;28;20184;-49
2023/12/24 02:30:58;;;;;;;11.70;8.70;;;0.80;99.90;;;;;;5205271;28;20446;-47
2023/12/24 02:33:33;;;;;;;15.90;10.70;;;0.90;99.90;;;;;;5201761;28;20497;-49
2023/12/24 02:36:06;;;;;;;16.60;9.70;;;1.10;99.90;;;;;;5202603;28;20782;-48
2023/12/24 02:38:37;;;;;;;15.30;10.07;;;0.90;99.90;;;;;;5206474;28;20434;-47
2023/12/24 02:41:08;;;;;;;24.30;11.67;;;0.90;99.90;;;;;;5203866;28;20504;-48
2023/12/24 02:43:38;;;;;;;24.63;11.63;;;0.80;99.90;;;;;;5198105;28;20521;-48
2023/12/24 02:46:09;;;;;;;26.00;12.93;;;0.80;99.90;;;;;;5184312;28;21096;-51
2023/12/24 02:48:39;;;;;;;30.43;13.70;;;0.90;99.90;;;;;;5201728;28;20215;-47
2023/12/24 02:51:10;;;;;;;23.47;12.80;;;0.90;99.90;;;;;;5202716;28;20270;-48
2023/12/24 02:53:41;;;;;;;19.87;11.70;;;0.90;99.90;;;;;;5202051;28;21079;-48
2023/12/24 02:56:12;;;;;;;27.67;14.17;;;1.00;99.90;;;;;;5203190;28;20339;-48
2023/12/24 02:58:43;;;;;;;25.17;13.07;;;1.00;99.90;;;;;;5201491;28;20991;-48
2023/12/24 03:01:14;;;;;;;25.70;12.10;;;1.00;99.90;;;;;;5201352;28;20619;-48
2023/12/24 03:03:45;;;;;;;23.40;12.07;;;1.10;99.90;;;;;;5201252;28;20470;-47
2023/12/24 03:06:16;;;;;;;23.07;12.07;;;1.10;99.90;;;;;;5197135;28;20195;-48
2023/12/24 03:08:46;;;;;;;17.67;10.13;;;1.10;99.90;;;;;;5204914;28;20427;-47
2023/12/24 03:11:17;;;;;;;17.33;9.40;;;1.00;99.90;;;;;;5201096;28;20238;-49
2023/12/24 03:13:48;;;;;;;10.03;7.40;;;1.10;99.90;;;;;;5202979;28;20257;-50
2023/12/24 03:16:18;;;;;;;12.93;8.47;;;1.10;99.90;;;;;;5200602;28;20183;-50
2023/12/24 03:18:49;;;;;;;12.27;6.60;;;1.10;99.90;;;;;;5201480;28;20188;-48
2023/12/24 03:21:19;;;;;;;16.17;7.67;;;1.10;99.90;;;;;;5200094;28;20325;-48
2023/12/24 03:23:50;;;;;;;12.70;7.33;;;1.10;99.90;;;;;;5203870;28;20310;-49
2023/12/24 03:26:22;;;;;;;9.47;6.40;;;1.10;99.90;;;;;;5201642;28;20230;-49
2023/12/24 03:28:52;;;;;;;11.33;5.60;;;1.10;99.90;;;;;;5202815;28;20187;-49
2023/12/24 03:31:26;;;;;;;6.73;5.27;;;1.10;99.90;;;;;;5198968;28;20837;-49
2023/12/24 03:33:56;;;;;;;6.60;4.77;;;1.20;99.90;;;;;;5200039;28;20199;-49
2023/12/24 03:36:27;;;;;;;12.70;6.37;;;1.20;99.90;;;;;;5197436;28;20450;-50
2023/12/24 03:38:57;;;;;;;8.50;6.17;;;1.20;99.90;;;;;;5199810;28;20179;-48
2023/12/24 03:41:28;;;;;;;10.87;6.40;;;1.20;99.90;;;;;;5198830;28;20190;-48
2023/12/24 03:43:59;;;;;;;12.20;5.73;;;1.10;99.90;;;;;;5199014;28;20215;-49
2023/12/24 03:46:29;;;;;;;13.47;6.17;;;1.10;99.90;;;;;;5197776;28;20277;-48
2023/12/24 03:49:00;;;;;;;8.10;5.60;;;1.20;99.90;;;;;;5200282;28;20199;-48
2023/12/24 03:51:31;;;;;;;10.53;5.53;;;1.20;99.90;;;;;;5199619;28;20201;-50
2023/12/24 03:54:01;;;;;;;5.40;4.90;;;1.20;99.90;;;;;;5200071;28;20642;-48
2023/12/24 03:56:32;;;;;;;4.50;4.10;;;1.20;99.90;;;;;;5196882;28;20278;-49
2023/12/24 03:59:03;;;;;;;7.30;4.50;;;1.20;99.90;;;;;;5199879;28;20584;-50
2023/12/24 04:01:33;;;;;;;6.40;4.73;;;1.20;99.90;;;;;;5197114;28;20183;-48
2023/12/24 04:04:04;;;;;;;4.67;3.63;;;1.20;99.90;;;;;;5195375;28;20198;-48
2023/12/24 04:06:34;;;;;;;3.77;3.10;;;1.20;99.90;;;;;;5200318;28;20198;-50
2023/12/24 04:09:05;;;;;;;4.13;3.73;;;1.20;99.90;;;;;;5199381;28;20233;-48
2023/12/24 04:11:36;;;;;;;5.20;2.77;;;1.30;99.90;;;;;;5197511;28;20177;-48
2023/12/24 04:14:06;;;;;;;2.73;2.53;;;1.20;99.90;;;;;;5209097;23;20231;-50
2023/12/24 04:16:37;;;;;;;5.00;2.70;;;1.20;99.90;;;;;;5170779;28;20825;-49
2023/12/24 04:19:08;;;;;;;3.57;3.27;;;1.30;99.90;;;;;;5185895;28;20189;-50
2023/12/24 04:21:39;;;;;;;4.47;3.03;;;1.30;99.90;;;;;;5182407;28;20278;-50
2023/12/24 04:24:09;;;;;;;4.03;3.70;;;1.30;99.90;;;;;;5200197;28;20243;-50
2023/12/24 04:26:40;;;;;;;9.93;4.60;;;1.20;99.90;;;;;;5185916;28;20210;-48
2023/12/24 04:29:11;;;;;;;4.80;3.30;;;1.10;99.90;;;;;;5202976;28;20188;-49
2023/12/24 04:31:42;;;;;;;5.43;4.07;;;1.20;99.90;;;;;;5178517;28;20184;-49
2023/12/24 04:34:13;;;;;;;8.13;5.40;;;1.30;99.90;;;;;;5196789;28;20235;-49
2023/12/24 04:36:43;;;;;;;13.10;5.90;;;1.20;99.90;;;;;;5193530;28;20187;-47
2023/12/24 04:39:14;;;;;;;8.27;5.37;;;1.20;99.90;;;;;;5186321;28;20216;-50
2023/12/24 04:41:45;;;;;;;8.90;5.70;;;1.20;99.90;;;;;;5184816;28;20180;-48
2023/12/24 04:44:16;;;;;;;5.67;4.20;;;1.20;99.90;;;;;;5181340;28;20204;-48
2023/12/24 04:46:48;;;;;;;4.80;4.30;;;1.30;99.90;;;;;;5199410;28;20173;-48
2023/12/24 04:49:19;;;;;;;5.00;4.50;;;1.20;99.90;;;;;;5189299;28;20184;-48
2023/12/24 04:51:49;;;;;;;7.57;5.50;;;1.20;99.90;;;;;;5208231;28;20429;-49
2023/12/24 04:54:20;;;;;;;8.50;5.37;;;1.20;99.90;;;;;;5201790;28;20200;-49
2023/12/24 04:56:51;;;;;;;11.23;5.90;;;1.30;99.90;;;;;;5188317;28;20499;-49
2023/12/24 04:59:21;;;;;;;10.60;5.63;;;1.30;99.90;;;;;;5200968;28;20662;-50
2023/12/24 05:01:52;;;;;;;7.47;4.77;;;1.30;99.90;;;;;;5179471;28;20246;-51
2023/12/24 05:04:26;;;;;;;7.03;5.17;;;1.30;99.90;;;;;;5186153;28;20592;-49
2023/12/24 05:06:57;;;;;;;4.63;4.20;;;1.40;99.90;;;;;;5186579;28;20188;-50
2023/12/24 05:09:27;;;;;;;6.30;4.83;;;1.40;99.90;;;;;;5197309;28;20442;-50
2023/12/24 05:11:58;;;;;;;4.23;3.90;;;1.40;99.90;;;;;;5186117;28;20177;-51
2023/12/24 05:14:29;;;;;;;8.77;5.40;;;1.60;99.90;;;;;;5188844;28;20528;-49
2023/12/24 05:17:02;;;;;;;5.97;4.60;;;1.50;99.90;;;;;;5188968;28;20580;-49
2023/12/24 05:19:32;;;;;;;8.00;5.30;;;1.50;99.90;;;;;;5183339;28;20667;-49
2023/12/24 05:22:03;;;;;;;5.63;4.90;;;1.50;99.90;;;;;;5184679;28;20467;-49
2023/12/24 05:24:34;;;;;;;4.80;4.50;;;1.60;99.90;;;;;;5184504;28;20200;-49
2023/12/24 05:27:05;;;;;;;6.57;4.37;;;1.60;99.90;;;;;;5182938;28;20877;-50
2023/12/24 05:29:36;;;;;;;7.43;5.10;;;1.60;99.90;;;;;;5179519;28;20186;-49
2023/12/24 05:32:07;;;;;;;5.67;5.17;;;1.70;99.90;;;;;;5187372;28;20435;-50
2023/12/24 05:34:38;;;;;;;3.83;3.53;;;1.70;99.90;;;;;;5183183;28;20594;-51
2023/12/24 05:37:09;;;;;;;9.30;6.67;;;1.70;99.90;;;;;;5177811;28;20603;-50
2023/12/24 05:39:43;;;;;;;4.60;4.30;;;1.70;99.90;;;;;;5199150;28;20553;-51
2023/12/24 05:42:14;;;;;;;4.13;3.83;;;2.00;99.90;;;;;;5183179;28;20470;-50
2023/12/24 05:44:44;;;;;;;4.80;4.30;;;1.90;99.90;;;;;;5184055;28;20423;-51
2023/12/24 05:47:15;;;;;;;6.63;5.73;;;2.20;99.90;;;;;;5179135;28;20191;-50
2023/12/24 05:49:46;;;;;;;5.03;4.63;;;2.20;99.90;;;;;;5182658;28;20172;-51
2023/12/24 05:52:17;;;;;;;6.33;5.70;;;2.20;99.90;;;;;;5177598;28;20184;-50
2023/12/24 05:54:48;;;;;;;7.70;5.97;;;2.40;99.90;;;;;;5183073;28;20192;-50
2023/12/24 05:57:18;;;;;;;6.13;5.63;;;2.40;99.90;;;;;;5190675;28;20649;-50
2023/12/24 05:59:49;;;;;;;5.37;4.97;;;2.50;99.90;;;;;;5160362;28;20192;-49
2023/12/24 06:02:20;;;;;;;6.10;5.53;;;2.40;99.90;;;;;;5197269;28;20676;-49
2023/12/24 06:04:51;;;;;;;7.20;6.53;;;2.50;99.90;;;;;;5187294;28;20425;-50
2023/12/24 06:07:22;;;;;;;5.57;5.17;;;2.70;99.90;;;;;;5190649;28;20443;-49
2023/12/24 06:09:52;;;;;;;9.17;6.50;;;2.70;99.90;;;;;;5181417;28;20255;-49
2023/12/24 06:12:23;;;;;;;8.73;7.00;;;2.80;99.90;;;;;;5181716;28;20558;-49
2023/12/24 06:14:54;;;;;;;5.50;5.10;;;3.00;99.90;;;;;;5183827;28;20192;-50
2023/12/24 06:17:25;;;;;;;7.10;6.10;;;3.00;99.90;;;;;;5193063;28;20189;-50
2023/12/24 06:19:56;;;;;;;5.33;4.83;;;2.90;99.90;;;;;;5183212;28;20184;-50
2023/12/24 06:22:27;;;;;;;6.10;5.70;;;3.10;99.90;;;;;;5178774;28;20305;-50
2023/12/24 06:24:58;;;;;;;10.60;7.10;;;3.10;99.90;;;;;;5185086;28;21064;-49
2023/12/24 06:27:35;;;;;;;7.07;6.50;;;3.20;99.90;;;;;;5203349;28;20429;-51
2023/12/24 06:30:07;;;;;;;5.67;5.10;;;3.20;99.90;;;;;;5186002;28;20439;-50
2023/12/24 06:32:41;;;;;;;10.63;6.70;;;3.10;99.90;;;;;;5197605;28;20554;-49
2023/12/24 06:35:16;;;;;;;7.17;5.80;;;3.10;99.90;;;;;;5182846;28;20442;-51
2023/12/24 06:37:47;;;;;;;8.40;7.17;;;3.20;99.90;;;;;;5198289;28;20797;-50
2023/12/24 06:40:18;;;;;;;6.40;5.80;;;3.30;99.90;;;;;;5199031;28;20450;-50
2023/12/24 06:42:49;;;;;;;7.30;5.50;;;3.30;99.90;;;;;;5180310;28;20346;-49
2023/12/24 06:45:20;;;;;;;5.20;4.80;;;3.40;99.90;;;;;;5198246;28;20535;-50
2023/12/24 06:47:50;;;;;;;7.63;5.73;;;3.40;99.90;;;;;;5181097;28;20436;-49
2023/12/24 06:50:22;;;;;;;5.60;5.10;;;3.40;99.90;;;;;;5181784;28;20185;-50
2023/12/24 06:52:53;;;;;;;6.20;5.57;;;3.50;99.90;;;;;;5180574;28;20216;-50
2023/12/24 06:55:23;;;;;;;7.97;6.77;;;3.60;99.90;;;;;;5181662;28;20448;-49
2023/12/24 06:57:54;;;;;;;7.50;6.70;;;3.60;99.90;;;;;;5182505;28;20237;-50
2023/12/24 07:00:25;;;;;;;6.67;5.43;;;3.70;99.90;;;;;;5182338;28;20187;-50
2023/12/24 07:02:56;;;;;;;7.43;6.73;;;3.70;99.90;;;;;;5180247;28;20613;-49
2023/12/24 07:05:33;;;;;;;7.60;6.80;;;3.80;99.90;;;;;;5182711;28;20214;-50
2023/12/24 07:08:07;;;;;;;9.10;6.30;;;3.80;99.90;;;;;;5182133;28;20736;-49
2023/12/24 07:10:38;;;;;;;5.13;4.73;;;4.00;99.90;;;;;;5181367;28;20535;-51
2023/12/24 07:13:08;;;;;;;5.40;4.30;;;4.30;99.90;;;;;;5194788;28;20464;-50
2023/12/24 07:15:40;;;;;;;3.40;3.20;;;4.60;99.90;;;;;;5182724;28;20506;-50
2023/12/24 07:18:11;;;;;;;1.90;1.90;;;4.80;99.90;;;;;;5181397;28;20271;-50
2023/12/24 07:20:42;;;;;;;3.33;3.13;;;5.30;99.90;;;;;;5179957;28;20455;-49
2023/12/24 07:23:13;;;;;;;2.60;2.50;;;5.50;99.90;;;;;;5179538;28;20477;-50
2023/12/24 07:25:44;;;;;;;2.80;2.60;;;5.60;99.90;;;;;;5181096;28;20196;-49
2023/12/24 07:28:15;;;;;;;3.90;3.60;;;5.80;99.90;;;;;;5180982;28;20176;-49
2023/12/24 07:30:45;;;;;;;3.60;3.37;;;6.00;99.90;;;;;;5195641;28;20279;-50
2023/12/24 07:33:16;;;;;;;3.70;3.40;;;6.10;99.90;;;;;;5179613;28;20680;-50
2023/12/24 07:35:47;;;;;;;3.40;3.17;;;6.20;99.90;;;;;;5195653;28;20218;-49
2023/12/24 07:38:18;;;;;;;4.27;4.00;;;6.40;99.90;;;;;;5178891;28;20227;-49
2023/12/24 07:40:49;;;;;;;6.53;5.10;;;6.50;99.90;;;;;;5183255;28;20199;-49
2023/12/24 07:43:19;;;;;;;5.27;4.80;;;6.50;99.90;;;;;;5194073;28;20211;-50
2023/12/24 07:45:51;;;;;;;3.70;3.40;;;6.70;99.90;;;;;;5181475;28;20589;-49
2023/12/24 07:48:21;;;;;;;4.70;4.30;;;6.70;99.90;;;;;;5180874;28;20700;-50
2023/12/24 07:50:52;;;;;;;5.73;5.23;;;6.70;99.90;;;;;;5179098;28;20441;-50
2023/12/24 07:53:23;;;;;;;3.87;3.67;;;6.70;99.90;;;;;;5195447;28;20234;-49
2023/12/24 07:55:54;;;;;;;4.47;4.20;;;6.80;99.90;;;;;;5197428;28;20193;-50
2023/12/24 07:58:24;;;;;;;6.10;5.07;;;6.80;99.90;;;;;;5194780;28;20219;-51
2023/12/24 08:00:55;;;;;;;4.80;4.40;;;6.90;99.90;;;;;;5195373;28;20176;-51
2023/12/24 08:03:26;;;;;;;4.47;4.10;;;7.10;99.90;;;;;;5180439;28;20212;-50
2023/12/24 08:05:57;;;;;;;7.20;5.77;;;7.10;99.90;;;;;;5180083;28;20187;-51
2023/12/24 08:08:28;;;;;;;6.50;5.37;;;7.10;99.90;;;;;;5179412;28;20672;-50
2023/12/24 08:10:59;;;;;;;6.23;5.57;;;7.10;99.90;;;;;;5196730;28;20177;-50
2023/12/24 08:13:29;;;;;;;6.57;5.90;;;7.20;99.90;;;;;;5167325;28;20462;-51
2023/12/24 08:16:02;;;;;;;5.30;4.80;;;7.20;99.90;;;;;;5182351;28;20231;-51
2023/12/24 08:18:33;;;;;;;9.17;5.67;;;7.20;99.90;;;;;;5200835;28;20435;-49
2023/12/24 08:21:07;;;;;;;8.93;6.20;;;7.30;99.90;;;;;;5184618;28;20473;-50
2023/12/24 08:23:38;;;;;;;21.10;9.20;;;7.40;99.90;;;;;;5185874;28;20581;-49
2023/12/24 08:26:09;;;;;;;9.23;7.63;;;7.40;99.90;;;;;;5186632;28;20514;-50
2023/12/24 08:28:39;;;;;;;11.30;7.30;;;7.30;99.90;;;;;;5201327;28;20192;-50
2023/12/24 08:31:10;;;;;;;5.90;5.30;;;7.40;99.90;;;;;;5198037;28;20516;-50
2023/12/24 08:33:41;;;;;;;7.00;6.33;;;7.40;99.90;;;;;;5186573;28;20227;-50
2023/12/24 08:36:12;;;;;;;10.17;7.23;;;7.40;99.90;;;;;;5202068;28;20196;-50
2023/12/24 08:38:43;;;;;;;7.03;6.40;;;7.50;99.90;;;;;;5203614;28;20184;-51
2023/12/24 08:41:14;;;;;;;7.10;6.47;;;7.60;99.90;;;;;;5186694;28;20439;-51
2023/12/24 08:43:45;;;;;;;13.80;7.70;;;7.70;99.90;;;;;;5184925;28;20225;-49
2023/12/24 08:46:16;;;;;;;7.33;6.53;;;7.60;99.90;;;;;;5183843;28;20188;-49
2023/12/24 08:48:47;;;;;;;13.23;9.47;;;7.60;99.90;;;;;;5201540;28;20716;-50
2023/12/24 08:51:18;;;;;;;7.70;6.93;;;7.60;99.90;;;;;;5198697;28;20549;-50
2023/12/24 08:53:49;;;;;;;10.60;7.53;;;7.60;99.90;;;;;;5187120;28;20215;-49
2023/12/24 08:56:19;;;;;;;14.27;9.30;;;7.70;99.90;;;;;;5189297;28;20186;-51
2023/12/24 08:58:50;;;;;;;14.60;8.73;;;7.70;99.90;;;;;;5182882;28;20650;-50
2023/12/24 09:01:21;;;;;;;11.27;7.63;;;7.60;99.90;;;;;;5185606;28;20627;-51
2023/12/24 09:03:52;;;;;;;10.60;7.50;;;7.60;99.90;;;;;;5201426;28;20220;-50
2023/12/24 09:06:23;;;;;;;9.23;8.27;;;7.70;99.90;;;;;;5203615;28;20184;-50
2023/12/24 09:08:53;;;;;;;9.37;7.87;;;7.80;99.90;;;;;;5182871;28;20172;-50
2023/12/24 09:11:24;;;;;;;11.27;7.93;;;7.80;99.90;;;;;;5199019;28;20451;-50
2023/12/24 09:13:55;;;;;;;9.23;7.07;;;7.90;99.90;;;;;;5183504;28;20251;-50
2023/12/24 09:16:25;;;;;;;6.90;5.20;;;7.80;99.90;;;;;;5197138;28;20184;-51
2023/12/24 09:18:56;;;;;;;6.33;5.57;;;7.80;99.90;;;;;;5199429;28;20232;-50
2023/12/24 09:21:27;;;;;;;8.67;6.40;;;7.90;99.90;;;;;;5183956;28;20307;-50
2023/12/24 09:24:00;;;;;;;6.70;5.60;;;7.90;99.90;;;;;;5180729;28;20212;-49
2023/12/24 09:26:31;;;;;;;7.60;5.27;;;7.90;99.90;;;;;;5175486;28;20443;-49
2023/12/24 09:29:02;;;;;;;3.70;3.50;;;7.90;99.90;;;;;;5182984;28;20431;-53
2023/12/24 09:31:33;;;;;;;21.23;5.60;;;7.90;99.90;;;;;;5176420;28;20218;-49
2023/12/24 09:34:04;;;;;;;6.13;5.23;;;7.90;99.90;;;;;;5190386;28;20555;-51
2023/12/24 09:36:35;;;;;;;4.03;3.83;;;7.90;99.90;;;;;;5205347;28;20211;-50
2023/12/24 09:39:06;;;;;;;3.77;3.57;;;8.00;99.90;;;;;;5192669;28;20526;-49
2023/12/24 09:41:40;;;;;;;7.90;4.80;;;8.00;99.90;;;;;;5185412;28;20193;-49
2023/12/24 09:44:11;;;;;;;4.27;3.90;;;8.00;99.90;;;;;;5180943;28;20472;-51
2023/12/24 09:46:41;;;;;;;3.57;3.37;;;8.10;99.90;;;;;;5203056;28;20914;-51
2023/12/24 09:49:12;;;;;;;2.67;2.57;;;8.10;99.90;;;;;;5177723;28;20180;-50
2023/12/24 09:51:43;;;;;;;3.10;2.80;;;8.10;99.90;;;;;;5183590;28;20190;-50
2023/12/24 09:54:14;;;;;;;2.03;2.03;;;8.10;99.90;;;;;;5184870;28;20673;-50
2023/12/24 09:56:45;;;;;;;3.20;2.97;;;8.20;99.90;;;;;;5193155;28;20199;-52
2023/12/24 09:59:16;;;;;;;2.57;2.43;;;8.20;99.90;;;;;;5187471;28;20475;-49
2023/12/24 10:01:47;;;;;;;2.20;2.00;;;8.20;99.90;;;;;;5182139;28;20472;-50
2023/12/24 10:04:18;;;;;;;1.73;1.67;;;8.30;99.90;;;;;;5179028;28;20566;-51
2023/12/24 10:06:53;;;;;;;2.00;2.00;;;8.30;99.90;;;;;;5184431;28;20596;-49
2023/12/24 10:09:41;;;;;;;2.17;1.97;;;8.30;99.90;;;;;;5181165;28;20227;-50
2023/12/24 10:12:12;;;;;;;1.70;1.70;;;8.40;99.90;;;;;;5185930;28;20849;-51
2023/12/24 10:14:57;;;;;;;2.97;2.87;;;8.40;99.90;;;;;;5183283;28;20451;-47
2023/12/24 10:17:30;;;;;;;2.20;2.10;;;8.50;99.90;;;;;;5183503;28;20197;-50
2023/12/24 10:20:06;;;;;;;3.17;3.07;;;8.50;99.90;;;;;;5177955;28;20782;-48
2023/12/24 10:22:37;;;;;;;1.80;1.77;;;8.50;99.90;;;;;;5184901;28;20518;-48
2023/12/24 10:25:08;;;;;;;1.07;1.07;;;8.50;99.90;;;;;;5184279;28;20474;-49
2023/12/24 10:27:39;;;;;;;1.67;1.67;;;8.70;99.90;;;;;;5185916;28;20194;-50
2023/12/24 10:30:13;;;;;;;1.20;1.20;;;8.60;99.90;;;;;;5187479;28;20824;-48
2023/12/24 10:32:44;;;;;;;1.30;1.30;;;8.60;99.90;;;;;;5202089;28;20233;-48
2023/12/24 10:35:22;;;;;;;5.40;1.50;;;8.70;99.90;;;;;;5185377;28;20438;-50
2023/12/24 10:38:06;;;;;;;1.53;1.43;;;8.70;99.90;;;;;;5189161;28;20195;-48
2023/12/24 10:40:37;;;;;;;1.10;1.10;;;8.70;99.90;;;;;;5184321;28;20447;-49
2023/12/24 10:43:08;;;;;;;1.10;1.10;;;8.80;99.90;;;;;;5181720;28;20470;-52
2023/12/24 10:45:39;;;;;;;0.80;0.80;;;8.80;99.90;;;;;;5177464;28;20846;-49
2023/12/24 10:48:10;;;;;;;1.40;1.30;;;8.80;99.90;;;;;;5198620;28;20576;-47
2023/12/24 10:50:40;;;;;;;1.40;1.40;;;8.80;99.90;;;;;;5180939;28;20283;-49
2023/12/24 10:53:13;;;;;;;0.70;0.70;;;8.90;99.90;;;;;;5197430;28;20208;-48
2023/12/24 10:56:08;;;;;;;0.90;0.90;;;8.80;99.90;;;;;;5177163;28;20576;-48
2023/12/24 10:58:57;;;;;;;0.70;0.70;;;8.90;99.90;;;;;;5174088;28;20790;-48
2023/12/24 11:01:29;;;;;;;1.00;1.00;;;8.90;99.90;;;;;;5183800;28;20431;-48
2023/12/24 11:03:59;;;;;;;1.07;1.07;;;8.90;99.90;;;;;;5184719;28;20466;-50
2023/12/24 11:06:36;;;;;;;1.20;1.20;;;8.90;99.90;;;;;;5178627;28;20450;-52
2023/12/24 11:09:19;;;;;;;0.83;0.80;;;9.00;99.90;;;;;;5180300;28;20188;-48
2023/12/24 11:11:51;;;;;;;1.00;1.00;;;9.00;99.90;;;;;;5198037;28;20443;-48
2023/12/24 11:14:44;;;;;;;0.60;0.60;;;9.00;99.90;;;;;;5183072;28;20470;-48
2023/12/24 11:17:34;;;;;;;2.80;2.60;;;9.00;99.90;;;;;;5184003;28;20462;-49
2023/12/24 11:20:25;;;;;;;0.73;0.73;;;9.00;99.90;;;;;;5201406;28;20935;-48
2023/12/24 11:23:02;;;;;;;1.10;0.90;;;9.00;99.90;;;;;;5180436;28;20481;-48
2023/12/24 11:25:39;;;;;;;1.53;0.70;;;9.10;99.90;;;;;;5180634;28;20456;-49
2023/12/24 11:28:36;;;;;;;0.60;0.60;;;9.00;99.90;;;;;;5184362;28;20427;-51
2023/12/24 11:31:07;;;;;;;4.53;0.50;;;9.00;99.90;;;;;;5180776;28;20434;-49
2023/12/24 11:33:48;;;;;;;0.73;0.70;;;9.00;99.90;;;;;;5196059;28;20466;-48
2023/12/24 11:36:19;;;;;;;0.73;0.73;;;9.10;99.90;;;;;;5181782;28;20463;-49
2023/12/24 11:38:59;;;;;;;0.70;0.70;;;9.10;99.90;;;;;;5194499;28;20498;-48
2023/12/24 11:41:30;;;;;;;0.53;0.53;;;9.10;99.90;;;;;;5180787;28;20220;-48
2023/12/24 11:44:02;;;;;;;0.50;0.50;;;9.10;99.90;;;;;;5178096;28;20568;-49
2023/12/24 11:46:35;;;;;;;0.73;0.70;;;9.10;99.90;;;;;;5181687;28;20966;-49
2023/12/24 11:49:06;;;;;;;0.80;0.80;;;9.10;99.90;;;;;;5197574;28;20435;-49
2023/12/24 11:51:37;;;;;;;0.80;0.80;;;9.10;99.90;;;;;;5180992;28;20442;-47
2023/12/24 11:54:08;;;;;;;1.53;1.10;;;9.00;99.90;;;;;;5198396;28;21075;-49
2023/12/24 11:56:39;;;;;;;1.07;0.90;;;9.10;99.90;;;;;;5185038;28;20192;-48
2023/12/24 11:59:09;;;;;;;0.80;0.80;;;9.10;99.90;;;;;;5183101;28;20192;-49
2023/12/24 12:01:40;;;;;;;0.93;0.83;;;9.00;99.90;;;;;;5189563;28;20190;-47
2023/12/24 12:04:11;;;;;;;2.93;1.10;;;9.10;99.90;;;;;;5204873;28;20777;-49
2023/12/24 12:06:42;;;;;;;0.70;0.70;;;9.10;99.90;;;;;;5165645;28;20664;-49
2023/12/24 12:09:14;;;;;;;1.07;0.70;;;9.10;99.90;;;;;;5202652;28;20546;-50
2023/12/24 12:11:46;;;;;;;0.63;0.63;;;9.20;99.90;;;;;;5185090;28;20184;-48
2023/12/24 12:14:17;;;;;;;63.70;43.83;;;9.10;99.90;;;;;;5182719;28;20479;-49
2023/12/24 12:16:48;;;;;;;1.57;1.57;;;9.10;99.90;;;;;;5187470;28;20419;-50
2023/12/24 12:19:19;;;;;;;0.80;0.80;;;9.10;99.90;;;;;;5180454;28;20556;-53
2023/12/24 12:21:49;;;;;;;1.03;1.03;;;9.10;99.90;;;;;;5188921;28;20224;-50
2023/12/24 12:24:24;;;;;;;1.13;1.13;;;9.00;99.90;;;;;;5192840;28;20475;-49
2023/12/24 12:26:55;;;;;;;1.13;0.90;;;9.00;99.90;;;;;;5190767;28;20188;-51
2023/12/24 12:29:26;;;;;;;1.10;1.07;;;9.00;99.90;;;;;;5176432;28;20446;-48
2023/12/24 12:31:58;;;;;;;0.60;0.60;;;9.00;99.90;;;;;;5180936;28;20559;-48
2023/12/24 12:34:29;;;;;;;0.97;0.97;;;9.10;99.90;;;;;;5175995;28;20737;-47
2023/12/24 12:37:00;;;;;;;0.90;0.90;;;9.00;99.90;;;;;;5187887;28;20496;-50
2023/12/24 12:39:30;;;;;;;0.40;0.40;;;9.00;99.90;;;;;;5166407;28;20279;-49
2023/12/24 12:42:02;;;;;;;3.83;1.23;;;9.00;99.90;;;;;;5180654;28;20188;-50
2023/12/24 12:44:33;;;;;;;1.47;1.00;;;9.00;99.90;;;;;;5177976;28;20676;-48
2023/12/24 12:47:05;;;;;;;0.77;0.77;;;9.10;99.90;;;;;;5178690;28;20443;-48
2023/12/24 12:49:36;;;;;;;1.00;1.00;;;9.00;99.90;;;;;;5182554;28;20181;-48
2023/12/24 12:52:11;;;;;;;0.70;0.70;;;9.00;99.90;;;;;;5180742;28;20848;-48
2023/12/24 12:54:41;;;;;;;0.97;0.97;;;9.10;99.90;;;;;;5194543;28;20859;-50
2023/12/24 12:57:28;;;;;;;1.00;1.00;;;9.00;99.90;;;;;;5193908;28;20514;-47
2023/12/24 13:00:08;;;;;;;1.13;1.13;;;9.00;99.90;;;;;;5189956;28;20430;-48
2023/12/24 13:02:41;;;;;;;0.90;0.90;;;9.10;99.90;;;;;;5199887;28;21069;-51
2023/12/24 13:05:31;;;;;;;1.43;1.10;;;9.00;99.90;;;;;;5187771;28;20445;-48
2023/12/24 13:08:13;;;;;;;2.10;1.90;;;9.00;99.90;;;;;;5184474;28;20633;-49
2023/12/24 13:10:44;;;;;;;1.20;1.20;;;9.10;99.90;;;;;;5190445;28;20427;-50
2023/12/24 13:13:20;;;;;;;1.77;1.77;;;9.10;99.90;;;;;;5183693;28;20470;-48
2023/12/24 13:16:04;;;;;;;1.50;1.50;;;9.00;99.90;;;;;;5205773;28;20188;-47
2023/12/24 13:18:35;;;;;;;1.23;1.23;;;9.10;99.90;;;;;;5185607;28;20533;-49